createdAt,value
2019-04-19T00:00:37.031Z,12.75
2019-04-19T00:01:44.781Z,12.78
2019-04-19T00:02:39.985Z,12.75
2019-04-19T00:03:38.809Z,12.68
2019-04-19T00:04:39.434Z,12.75
2019-04-19T00:05:38.662Z,12.61
2019-04-19T00:06:37.804Z,12.73
2019-04-19T00:07:35.874Z,12.61
2019-04-19T00:08:49.430Z,12.61
2019-04-19T00:09:46.752Z,12.61
2019-04-19T00:10:46.066Z,12.60
2019-04-19T00:11:42.167Z,12.54
2019-04-19T00:12:46.023Z,12.57
2019-04-19T00:13:36.616Z,12.54
2019-04-19T00:14:35.818Z,12.46
2019-04-19T00:15:36.266Z,12.55
2019-04-19T00:16:36.333Z,12.53
2019-04-19T00:17:37.022Z,12.35
2019-04-19T00:18:37.911Z,12.39
2019-04-19T00:19:58.029Z,12.42
2019-04-19T00:21:01.936Z,12.31
2019-04-19T00:21:58.239Z,12.25
2019-04-19T00:22:55.421Z,12.24
2019-04-19T00:23:42.566Z,12.21
2019-04-19T00:24:35.417Z,12.18
2019-04-19T00:25:35.020Z,12.20
2019-04-19T00:26:35.985Z,12.06
2019-04-19T00:27:41.640Z,12.10
2019-04-19T00:28:42.251Z,12.20
2019-04-19T00:29:44.810Z,12.13
2019-04-19T00:30:47.638Z,12.07
2019-04-19T00:31:45.133Z,12.03
2019-04-19T00:32:51.878Z,11.99
2019-04-19T00:33:41.687Z,11.99
2019-04-19T00:34:35.728Z,11.95
2019-04-19T00:35:34.796Z,12.04
2019-04-19T00:36:34.666Z,11.90
2019-04-19T00:37:34.611Z,12.04
2019-04-19T00:38:42.713Z,11.95
2019-04-19T00:39:51.843Z,11.97
2019-04-19T00:40:47.296Z,12.02
2019-04-19T00:41:56.997Z,11.99
2019-04-19T00:42:48.435Z,12.09
2019-04-19T00:43:52.274Z,11.94
2019-04-19T00:44:59.042Z,11.87
2019-04-19T00:45:49.842Z,11.87
2019-04-19T00:46:55.308Z,11.91
2019-04-19T00:47:47.448Z,11.99
2019-04-19T00:48:46.477Z,12.00
2019-04-19T00:49:49.887Z,11.81
2019-04-19T00:50:48.571Z,11.83
2019-04-19T00:51:50.404Z,11.84
2019-04-19T00:52:50.282Z,11.83
2019-04-19T00:53:42.992Z,11.80
2019-04-19T00:54:46.006Z,11.81
2019-04-19T00:55:47.379Z,11.81
2019-04-19T00:56:47.204Z,11.77
2019-04-19T00:57:41.963Z,11.72
2019-04-19T00:58:36.235Z,11.77
2019-04-19T00:59:40.487Z,11.70
2019-04-19T01:00:36.787Z,11.77
2019-04-19T01:01:34.135Z,11.75
2019-04-19T01:02:40.657Z,11.77
2019-04-19T01:03:39.270Z,11.83
2019-04-19T01:04:36.230Z,11.83
2019-04-19T01:05:44.479Z,11.80
2019-04-19T01:06:41.958Z,11.69
2019-04-19T01:07:37.575Z,11.68
2019-04-19T01:08:38.185Z,11.70
2019-04-19T01:09:48.900Z,11.66
2019-04-19T01:10:43.791Z,11.66
2019-04-19T01:11:49.497Z,11.54
2019-04-19T01:12:47.875Z,11.59
2019-04-19T01:13:50.718Z,11.63
2019-04-19T01:14:45.191Z,11.60
2019-04-19T01:15:47.226Z,11.57
2019-04-19T01:16:51.626Z,11.62
2019-04-19T01:17:51.324Z,11.59
2019-04-19T01:18:44.016Z,11.66
2019-04-19T01:19:34.196Z,11.59
2019-04-19T01:20:33.226Z,11.52
2019-04-19T01:21:34.332Z,11.55
2019-04-19T01:22:34.679Z,11.66
2019-04-19T01:23:40.755Z,11.54
2019-04-19T01:24:39.235Z,11.47
2019-04-19T01:25:33.742Z,11.48
2019-04-19T01:26:37.268Z,11.43
2019-04-19T01:27:35.990Z,11.44
2019-04-19T01:28:33.728Z,11.47
2019-04-19T01:29:38.207Z,11.40
2019-04-19T01:30:37.026Z,11.40
2019-04-19T01:31:33.934Z,11.36
2019-04-19T01:32:35.321Z,11.50
2019-04-19T01:33:37.936Z,11.37
2019-04-19T01:34:34.062Z,11.44
2019-04-19T01:35:39.060Z,11.43
2019-04-19T01:36:38.209Z,11.41
2019-04-19T01:37:33.197Z,11.44
2019-04-19T01:38:38.534Z,11.41
2019-04-19T01:39:55.425Z,11.50
2019-04-19T01:40:57.337Z,11.47
2019-04-19T01:41:45.429Z,11.52
2019-04-19T01:42:50.314Z,11.48
2019-04-19T01:43:48.445Z,11.55
2019-04-19T01:44:47.784Z,11.62
2019-04-19T01:45:51.413Z,11.63
2019-04-19T01:46:51.184Z,11.52
2019-04-19T01:47:50.567Z,11.59
2019-04-19T01:48:46.861Z,11.69
2019-04-19T01:49:48.152Z,11.69
2019-04-19T01:50:52.070Z,11.73
2019-04-19T01:51:48.053Z,11.70
2019-04-19T01:52:53.053Z,11.77
2019-04-19T01:53:45.858Z,11.77
2019-04-19T01:54:47.991Z,11.69
2019-04-19T01:55:36.882Z,11.59
2019-04-19T01:56:32.670Z,11.68
2019-04-19T01:57:32.413Z,11.55
2019-04-19T01:58:31.832Z,11.62
2019-04-19T01:59:39.765Z,11.62
2019-04-19T02:00:41.161Z,11.48
2019-04-19T02:01:33.713Z,11.51
2019-04-19T02:02:32.680Z,11.50
2019-04-19T02:03:38.868Z,11.60
2019-04-19T02:04:33.609Z,11.54
2019-04-19T02:05:31.772Z,11.52
2019-04-19T02:06:36.800Z,11.59
2019-04-19T02:07:34.491Z,11.54
2019-04-19T02:08:33.179Z,11.60
2019-04-19T02:09:48.672Z,11.59
2019-04-19T02:10:45.264Z,11.70
2019-04-19T02:11:41.817Z,11.70
2019-04-19T02:12:42.087Z,11.59
2019-04-19T02:13:37.619Z,11.66
2019-04-19T02:14:40.771Z,11.60
2019-04-19T02:15:38.931Z,11.55
2019-04-19T02:16:31.846Z,11.57
2019-04-19T02:17:37.560Z,11.52
2019-04-19T02:18:33.620Z,11.55
2019-04-19T02:19:33.084Z,11.52
2019-04-19T02:20:36.594Z,11.54
2019-04-19T02:21:35.829Z,11.54
2019-04-19T02:22:33.539Z,11.44
2019-04-19T02:23:36.872Z,11.45
2019-04-19T02:24:37.277Z,11.47
2019-04-19T02:25:32.347Z,11.30
2019-04-19T02:26:31.932Z,11.35
2019-04-19T02:27:34.148Z,11.47
2019-04-19T02:28:35.756Z,11.40
2019-04-19T02:29:32.988Z,11.43
2019-04-19T02:30:44.193Z,11.50
2019-04-19T02:31:59.440Z,11.59
2019-04-19T02:32:46.506Z,11.52
2019-04-19T02:34:09.116Z,11.60
2019-04-19T02:34:56.841Z,11.62
2019-04-19T02:36:06.376Z,11.75
2019-04-19T02:39:06.540Z,11.83
2019-04-19T02:40:02.072Z,11.84
2019-04-19T02:41:59.428Z,11.87
2019-04-19T02:43:15.921Z,11.83
2019-04-19T02:44:01.441Z,11.83
2019-04-19T02:46:16.157Z,11.81
2019-04-19T02:47:07.049Z,11.80
2019-04-19T02:49:02.109Z,11.69
2019-04-19T02:49:58.043Z,11.62
2019-04-19T02:52:56.887Z,11.60
2019-04-19T02:55:02.180Z,11.59
2019-04-19T02:56:05.311Z,11.62
2019-04-19T02:57:03.240Z,11.57
2019-04-19T02:57:55.402Z,11.60
2019-04-19T02:59:01.401Z,11.62
2019-04-19T03:01:02.587Z,11.69
2019-04-19T03:02:11.385Z,11.60
2019-04-19T03:04:08.993Z,11.77
2019-04-19T03:05:04.126Z,11.73
2019-04-19T03:05:47.370Z,11.80
2019-04-19T03:06:36.888Z,11.80
2019-04-19T03:07:30.254Z,11.75
2019-04-19T03:08:29.410Z,11.78
2019-04-19T03:09:35.260Z,11.70
2019-04-19T03:10:31.227Z,11.83
2019-04-19T03:11:45.787Z,11.70
2019-04-19T03:12:50.017Z,11.77
2019-04-19T03:13:41.169Z,11.65
2019-04-19T03:14:45.242Z,11.66
2019-04-19T03:15:51.933Z,11.66
2019-04-19T03:16:51.084Z,11.62
2019-04-19T03:17:44.916Z,11.57
2019-04-19T03:18:42.699Z,11.55
2019-04-19T03:19:44.195Z,11.55
2019-04-19T03:20:42.598Z,11.54
2019-04-19T03:21:42.924Z,11.62
2019-04-19T03:22:42.304Z,11.60
2019-04-19T03:23:36.507Z,11.51
2019-04-19T03:24:49.321Z,11.52
2019-04-19T03:25:40.982Z,11.52
2019-04-19T03:26:42.457Z,11.63
2019-04-19T03:27:45.171Z,11.62
2019-04-19T03:28:39.864Z,11.52
2019-04-19T03:29:35.204Z,11.55
2019-04-19T03:30:51.819Z,11.57
2019-04-19T03:31:58.874Z,11.50
2019-04-19T03:33:59.288Z,11.50
2019-04-19T03:34:57.289Z,11.47
2019-04-19T03:35:49.981Z,11.30
2019-04-19T03:36:43.787Z,11.27
2019-04-19T03:37:53.154Z,11.29
2019-04-19T03:38:44.190Z,11.25
2019-04-19T03:39:58.527Z,11.25
2019-04-19T03:40:44.408Z,11.18
2019-04-19T03:41:58.004Z,11.12
2019-04-19T03:42:51.565Z,11.07
2019-04-19T03:43:47.613Z,10.99
2019-04-19T03:44:41.341Z,10.90
2019-04-19T03:45:51.712Z,10.81
2019-04-19T03:46:52.244Z,10.84
2019-04-19T03:48:58.471Z,10.67
2019-04-19T03:49:45.096Z,10.56
2019-04-19T03:50:44.351Z,10.41
2019-04-19T03:51:58.257Z,10.38
2019-04-19T03:52:46.939Z,10.35
2019-04-19T03:53:48.838Z,10.26
2019-04-19T03:54:43.963Z,10.19
2019-04-19T03:55:57.795Z,10.19
2019-04-19T03:56:43.738Z,10.10
2019-04-19T03:57:40.117Z,10.12
2019-04-19T03:58:29.238Z,9.99
2019-04-19T03:59:29.001Z,9.99
2019-04-19T04:00:28.101Z,9.94
2019-04-19T04:01:34.857Z,9.92
2019-04-19T04:02:31.753Z,9.92
2019-04-19T04:03:32.930Z,9.86
2019-04-19T04:04:31.726Z,9.83
2019-04-19T04:05:30.321Z,9.89
2019-04-19T04:06:33.772Z,9.92
2019-04-19T04:07:30.359Z,9.84
2019-04-19T04:08:28.894Z,9.91
2019-04-19T04:09:35.750Z,9.87
2019-04-19T04:10:32.764Z,9.91
2019-04-19T04:11:29.637Z,9.87
2019-04-19T04:12:38.030Z,9.86
2019-04-19T04:13:38.406Z,9.82
2019-04-19T04:14:45.525Z,9.68
2019-04-19T04:15:45.926Z,9.65
2019-04-19T04:16:35.772Z,9.59
2019-04-19T04:17:27.011Z,9.62
2019-04-19T04:18:27.937Z,9.54
2019-04-19T04:19:27.222Z,9.54
2019-04-19T04:20:26.902Z,9.54
2019-04-19T04:21:33.853Z,9.50
2019-04-19T04:22:31.886Z,9.56
2019-04-19T04:23:32.529Z,9.61
2019-04-19T04:24:32.915Z,9.59
2019-04-19T04:25:33.056Z,9.62
2019-04-19T04:26:34.866Z,9.64
2019-04-19T04:27:41.325Z,9.56
2019-04-19T04:28:40.059Z,9.55
2019-04-19T04:29:34.251Z,9.55
2019-04-19T04:30:34.764Z,9.64
2019-04-19T04:31:42.089Z,9.56
2019-04-19T04:32:39.444Z,9.50
2019-04-19T04:33:41.287Z,9.55
2019-04-19T04:34:38.759Z,9.51
2019-04-19T04:35:41.221Z,9.48
2019-04-19T04:36:48.002Z,9.46
2019-04-19T04:37:43.493Z,9.47
2019-04-19T04:38:32.671Z,9.40
2019-04-19T04:39:26.239Z,9.40
2019-04-19T04:40:27.338Z,9.37
2019-04-19T04:41:29.253Z,9.40
2019-04-19T04:42:34.912Z,9.37
2019-04-19T04:43:39.185Z,9.29
2019-04-19T04:45:54.571Z,9.32
2019-04-19T04:46:52.866Z,9.39
2019-04-19T04:47:42.021Z,9.46
2019-04-19T04:48:43.508Z,9.40
2019-04-19T04:49:50.657Z,9.43
2019-04-19T04:50:50.776Z,9.46
2019-04-19T04:51:44.828Z,9.55
2019-04-19T04:52:30.777Z,9.55
2019-04-19T04:53:25.839Z,9.59
2019-04-19T04:54:25.707Z,9.62
2019-04-19T04:55:26.315Z,9.76
2019-04-19T04:56:32.396Z,9.68
2019-04-19T04:57:35.111Z,9.74
2019-04-19T04:58:32.291Z,9.74
2019-04-19T04:59:26.892Z,9.86
2019-04-19T05:00:32.002Z,9.92
2019-04-19T05:01:35.493Z,9.98
2019-04-19T05:02:42.589Z,10.04
2019-04-19T05:03:45.611Z,10.10
2019-04-19T05:04:37.525Z,10.01
2019-04-19T05:05:39.636Z,9.97
2019-04-19T05:06:47.805Z,9.98
2019-04-19T05:07:48.836Z,9.97
2019-04-19T05:08:47.512Z,10.01
2019-04-19T05:09:47.376Z,9.99
2019-04-19T05:10:39.561Z,9.99
2019-04-19T05:11:47.219Z,9.99
2019-04-19T05:13:03.206Z,9.98
2019-04-19T05:13:43.741Z,9.99
2019-04-19T05:14:40.263Z,10.05
2019-04-19T05:15:44.694Z,10.05
2019-04-19T05:16:46.836Z,10.12
2019-04-19T05:18:46.576Z,10.19
2019-04-19T05:19:46.579Z,10.23
2019-04-19T05:20:41.294Z,10.33
2019-04-19T05:21:40.463Z,10.28
2019-04-19T05:22:36.666Z,10.37
2019-04-19T05:23:47.728Z,10.40
2019-04-19T05:24:52.932Z,10.31
2019-04-19T05:25:44.340Z,10.46
2019-04-19T05:26:44.681Z,10.53
2019-04-19T05:27:46.506Z,10.59
2019-04-19T05:28:41.059Z,10.67
2019-04-19T05:29:34.505Z,10.71
2019-04-19T05:30:39.026Z,10.78
2019-04-19T05:31:32.765Z,10.87
2019-04-19T05:32:31.050Z,10.99
2019-04-19T05:33:40.125Z,10.99
2019-04-19T05:34:41.538Z,11.14
2019-04-19T05:35:46.745Z,11.19
2019-04-19T05:36:43.817Z,11.23
2019-04-19T05:37:45.267Z,11.30
2019-04-19T05:38:52.317Z,11.36
2019-04-19T05:39:41.569Z,11.44
2019-04-19T05:40:39.047Z,11.48
2019-04-19T05:41:39.081Z,11.51
2019-04-19T05:42:39.844Z,11.62
2019-04-19T05:43:57.280Z,11.68
2019-04-19T05:44:53.582Z,11.77
2019-04-19T05:45:51.861Z,11.88
2019-04-19T05:46:48.094Z,11.97
2019-04-19T05:47:37.402Z,12.03
2019-04-19T05:48:33.662Z,12.18
2019-04-19T05:49:42.973Z,12.29
2019-04-19T05:50:39.698Z,12.39
2019-04-19T05:51:47.401Z,12.50
2019-04-19T05:52:42.388Z,12.61
2019-04-19T05:53:34.062Z,12.62
2019-04-19T05:54:23.969Z,12.83
2019-04-19T05:55:23.935Z,12.85
2019-04-19T05:56:24.220Z,12.87
2019-04-19T05:57:41.128Z,13.03
2019-04-19T05:58:39.608Z,13.08
2019-04-19T05:59:37.950Z,13.15
2019-04-19T06:00:37.816Z,13.15
2019-04-19T06:01:41.683Z,13.09
2019-04-19T06:02:32.687Z,13.28
2019-04-19T06:03:41.380Z,13.33
2019-04-19T06:04:45.317Z,13.46
2019-04-19T06:05:52.986Z,13.53
2019-04-19T06:06:38.954Z,13.68
2019-04-19T06:07:39.445Z,13.65
2019-04-19T06:08:29.367Z,13.79
2019-04-19T06:09:23.942Z,13.96
2019-04-19T06:10:25.456Z,14.08
2019-04-19T06:11:29.009Z,14.22
2019-04-19T06:12:28.212Z,14.20
2019-04-19T06:13:23.540Z,14.26
2019-04-19T06:14:45.173Z,14.28
2019-04-19T06:15:51.253Z,14.44
2019-04-19T06:16:39.339Z,14.59
2019-04-19T06:17:41.042Z,14.70
2019-04-19T06:18:36.076Z,14.79
2019-04-19T06:19:35.414Z,14.94
2019-04-19T06:20:43.913Z,15.10
2019-04-19T06:21:36.688Z,15.14
2019-04-19T06:22:43.026Z,15.17
2019-04-19T06:23:43.932Z,15.25
2019-04-19T06:24:43.741Z,15.35
2019-04-19T06:25:52.745Z,15.43
2019-04-19T06:27:53.649Z,15.49
2019-04-19T06:28:55.667Z,15.57
2019-04-19T06:29:55.075Z,15.64
2019-04-19T06:30:44.033Z,15.73
2019-04-19T06:31:46.112Z,15.68
2019-04-19T06:32:46.371Z,15.80
2019-04-19T06:33:43.170Z,15.91
2019-04-19T06:34:42.702Z,15.92
2019-04-19T06:35:35.632Z,16.00
2019-04-19T06:36:23.039Z,16.09
2019-04-19T06:37:27.670Z,16.35
2019-04-19T06:38:22.634Z,16.21
2019-04-19T06:39:22.615Z,16.49
2019-04-19T06:40:27.684Z,16.66
2019-04-19T06:41:24.948Z,16.69
2019-04-19T06:42:31.859Z,16.78
2019-04-19T06:43:35.087Z,16.83
2019-04-19T06:44:44.679Z,17.01
2019-04-19T06:45:34.416Z,17.09
2019-04-19T06:46:36.409Z,17.06
2019-04-19T06:47:29.671Z,17.06
2019-04-19T06:48:28.093Z,16.91
2019-04-19T06:49:26.134Z,16.93
2019-04-19T06:50:30.018Z,17.05
2019-04-19T06:51:28.578Z,16.94
2019-04-19T06:52:26.418Z,17.12
2019-04-19T06:53:22.939Z,17.08
2019-04-19T06:54:28.545Z,17.05
2019-04-19T06:55:28.523Z,17.19
2019-04-19T06:56:28.341Z,17.22
2019-04-19T06:57:27.300Z,17.19
2019-04-19T06:58:27.291Z,17.09
2019-04-19T06:59:40.842Z,17.14
2019-04-19T07:00:36.290Z,17.20
2019-04-19T07:01:32.863Z,17.31
2019-04-19T07:02:22.225Z,17.41
2019-04-19T07:03:21.640Z,17.42
2019-04-19T07:04:21.382Z,17.63
2019-04-19T07:05:33.838Z,17.65
2019-04-19T07:06:36.329Z,17.63
2019-04-19T07:07:36.515Z,17.71
2019-04-19T07:09:45.128Z,17.76
2019-04-19T07:11:46.544Z,17.85
2019-04-19T07:12:41.389Z,17.78
2019-04-19T07:13:32.585Z,17.98
2019-04-19T07:14:24.989Z,17.87
2019-04-19T07:16:39.622Z,18.04
2019-04-19T07:17:38.999Z,18.08
2019-04-19T07:18:33.820Z,18.11
2019-04-19T07:19:41.140Z,18.25
2019-04-19T07:20:36.113Z,18.31
2019-04-19T07:21:37.321Z,18.49
2019-04-19T07:22:38.867Z,18.52
2019-04-19T07:23:42.004Z,18.73
2019-04-19T07:24:45.782Z,19.04
2019-04-19T07:25:51.330Z,19.22
2019-04-19T07:26:42.590Z,19.36
2019-04-19T07:27:34.024Z,19.49
2019-04-19T07:28:26.412Z,19.47
2019-04-19T07:29:21.172Z,19.55
2019-04-19T07:30:20.591Z,19.63
2019-04-19T07:31:21.705Z,19.56
2019-04-19T07:32:30.613Z,19.62
2019-04-19T07:33:31.517Z,19.73
2019-04-19T07:34:37.090Z,19.76
2019-04-19T07:35:43.205Z,19.77
2019-04-19T07:36:40.138Z,19.94
2019-04-19T07:37:34.892Z,19.95
2019-04-19T07:38:41.527Z,19.85
2019-04-19T07:39:37.797Z,20.11
2019-04-19T07:40:42.879Z,20.24
2019-04-19T07:41:39.836Z,20.41
2019-04-19T07:42:39.791Z,20.29
2019-04-19T07:43:37.887Z,20.21
2019-04-19T07:44:32.023Z,20.24
2019-04-19T07:45:32.026Z,20.37
2019-04-19T07:46:38.402Z,20.39
2019-04-19T07:47:29.450Z,20.56
2019-04-19T07:48:23.586Z,20.50
2019-04-19T07:49:20.843Z,20.44
2019-04-19T07:50:26.148Z,20.26
2019-04-19T07:51:26.567Z,20.32
2019-04-19T07:52:24.651Z,20.31
2019-04-19T07:53:29.587Z,20.40
2019-04-19T07:54:23.680Z,20.47
2019-04-19T07:55:20.792Z,20.58
2019-04-19T07:56:31.385Z,20.63
2019-04-19T07:57:51.476Z,20.78
2019-04-19T07:58:45.887Z,20.82
2019-04-19T08:00:52.086Z,20.77
2019-04-19T08:01:54.465Z,20.66
2019-04-19T08:02:49.817Z,20.69
2019-04-19T08:04:03.844Z,20.62
2019-04-19T08:05:53.002Z,20.78
2019-04-19T08:06:50.959Z,20.81
2019-04-19T08:09:50.018Z,20.93
2019-04-19T08:12:03.188Z,21.06
2019-04-19T08:13:01.066Z,21.18
2019-04-19T08:16:01.267Z,21.42
2019-04-19T08:17:56.533Z,21.42
2019-04-19T08:27:24.734Z,21.15
2019-04-19T08:28:29.224Z,21.29
2019-04-19T08:29:32.263Z,21.22
2019-04-19T08:30:30.189Z,21.37
2019-04-19T08:31:19.493Z,21.57
2019-04-19T08:32:19.418Z,21.70
2019-04-19T08:33:19.051Z,21.88
2019-04-19T08:34:21.739Z,21.85
2019-04-19T08:35:19.388Z,21.99
2019-04-19T08:36:25.555Z,22.02
2019-04-19T08:37:28.081Z,22.18
2019-04-19T08:38:23.031Z,22.25
2019-04-19T08:39:38.839Z,22.29
2019-04-19T08:40:37.776Z,22.59
2019-04-19T08:41:31.583Z,22.73
2019-04-19T08:42:34.302Z,22.96
2019-04-19T08:43:38.185Z,22.94
2019-04-19T08:44:36.505Z,23.06
2019-04-19T08:45:22.787Z,22.99
2019-04-19T08:46:19.740Z,23.17
2019-04-19T08:47:27.872Z,23.21
2019-04-19T08:48:25.014Z,23.17
2019-04-19T08:49:22.745Z,23.12
2019-04-19T08:50:18.507Z,22.98
2019-04-19T08:51:25.190Z,23.12
2019-04-19T08:52:24.853Z,23.12
2019-04-19T08:53:33.671Z,23.20
2019-04-19T08:54:43.564Z,23.24
2019-04-19T08:55:35.326Z,23.40
2019-04-19T08:56:29.393Z,23.51
2019-04-19T08:57:22.231Z,23.50
2019-04-19T08:58:37.681Z,23.59
2019-04-19T09:00:44.969Z,23.81
2019-04-19T09:01:40.444Z,23.92
2019-04-19T09:02:36.272Z,23.88
2019-04-19T09:03:42.472Z,23.87
2019-04-19T09:04:34.466Z,23.80
2019-04-19T09:05:31.017Z,23.87
2019-04-19T09:07:26.661Z,24.01
2019-04-19T09:08:37.429Z,23.84
2019-04-19T09:09:48.471Z,23.69
2019-04-19T09:10:33.699Z,23.61
2019-04-19T09:11:36.471Z,23.66
2019-04-19T09:12:34.569Z,23.63
2019-04-19T09:13:38.095Z,23.55
2019-04-19T09:14:39.956Z,23.65
2019-04-19T09:15:34.073Z,23.73
2019-04-19T09:16:34.574Z,23.96
2019-04-19T09:17:57.740Z,23.96
2019-04-19T09:18:46.226Z,23.92
2019-04-19T09:19:55.043Z,24.14
2019-04-19T09:20:38.744Z,24.28
2019-04-19T09:21:30.773Z,24.33
2019-04-19T09:22:36.061Z,24.65
2019-04-19T09:23:31.135Z,24.95
2019-04-19T09:24:31.018Z,25.28
2019-04-19T09:25:30.281Z,25.54
2019-04-19T09:26:38.701Z,25.73
2019-04-19T09:27:41.742Z,25.80
2019-04-19T09:29:40.343Z,25.80
2019-04-19T09:30:37.921Z,25.84
2019-04-19T09:31:34.487Z,25.78
2019-04-19T09:32:21.580Z,25.98
2019-04-19T09:33:25.666Z,25.99
2019-04-19T09:34:21.544Z,26.19
2019-04-19T09:35:20.325Z,26.16
2019-04-19T09:36:20.624Z,26.40
2019-04-19T09:37:33.983Z,26.31
2019-04-19T09:38:29.793Z,26.55
2019-04-19T09:39:31.311Z,26.51
2019-04-19T09:40:29.308Z,26.48
2019-04-19T09:41:25.604Z,26.68
2019-04-19T09:42:32.581Z,27.10
2019-04-19T09:43:31.007Z,27.14
2019-04-19T09:44:25.810Z,27.40
2019-04-19T09:45:17.159Z,27.67
2019-04-19T09:46:17.134Z,27.30
2019-04-19T09:47:17.113Z,27.27
2019-04-19T09:48:40.259Z,27.48
2019-04-19T09:49:35.465Z,27.48
2019-04-19T09:50:36.308Z,26.96
2019-04-19T09:51:35.273Z,26.92
2019-04-19T09:52:57.142Z,27.30
2019-04-19T09:53:43.232Z,27.49
2019-04-19T09:54:41.601Z,27.51
2019-04-19T09:55:39.211Z,27.29
2019-04-19T09:56:38.351Z,27.47
2019-04-19T09:57:38.499Z,27.65
2019-04-19T09:58:35.466Z,27.26
2019-04-19T09:59:25.415Z,27.80
2019-04-19T10:00:22.283Z,27.54
2019-04-19T10:01:16.799Z,27.98
2019-04-19T10:02:25.542Z,28.15
2019-04-19T10:03:25.506Z,28.60
2019-04-19T10:04:16.821Z,28.32
2019-04-19T10:05:16.864Z,28.56
2019-04-19T10:06:17.136Z,28.27
2019-04-19T10:07:16.717Z,28.56
2019-04-19T10:08:17.676Z,28.44
2019-04-19T10:09:20.743Z,28.25
2019-04-19T10:10:16.597Z,28.27
2019-04-19T10:11:16.968Z,28.81
2019-04-19T10:12:17.381Z,28.91
2019-04-19T10:13:16.530Z,28.94
2019-04-19T10:14:17.254Z,29.31
2019-04-19T10:15:16.493Z,29.88
2019-04-19T10:16:16.689Z,29.91
2019-04-19T10:17:16.442Z,29.69
2019-04-19T10:18:16.579Z,29.75
2019-04-19T10:19:16.829Z,29.27
2019-04-19T10:20:16.374Z,29.66
2019-04-19T10:21:20.405Z,29.60
2019-04-19T10:22:16.682Z,29.65
2019-04-19T10:23:17.479Z,29.59
2019-04-19T10:24:19.681Z,29.75
2019-04-19T10:25:16.877Z,29.65
2019-04-19T10:26:16.247Z,29.72
2019-04-19T10:27:17.129Z,29.94
2019-04-19T10:28:16.196Z,29.95
2019-04-19T10:29:24.615Z,29.78
2019-04-19T10:30:17.661Z,29.88
2019-04-19T10:31:16.124Z,30.27
2019-04-19T10:32:16.818Z,30.65
2019-04-19T10:33:28.117Z,30.88
2019-04-19T10:34:16.532Z,30.44
2019-04-19T10:35:16.043Z,30.30
2019-04-19T10:36:16.020Z,30.03
2019-04-19T10:37:15.997Z,29.97
2019-04-19T10:38:15.974Z,30.19
2019-04-19T10:39:16.814Z,30.46
2019-04-19T10:40:15.950Z,30.00
2019-04-19T10:41:15.918Z,30.65
2019-04-19T10:42:18.912Z,30.96
2019-04-19T10:43:16.888Z,31.24
2019-04-19T10:44:19.019Z,30.34
2019-04-19T10:45:16.280Z,30.27
2019-04-19T10:46:15.796Z,30.85
2019-04-19T10:47:16.679Z,31.06
2019-04-19T10:48:15.915Z,30.77
2019-04-19T10:49:22.879Z,30.84
2019-04-19T10:50:28.264Z,30.78
2019-04-19T10:51:15.689Z,30.94
2019-04-19T10:52:15.665Z,31.21
2019-04-19T10:53:18.977Z,31.09
2019-04-19T10:54:15.625Z,31.43
2019-04-19T10:55:16.211Z,31.70
2019-04-19T10:56:16.395Z,31.89
2019-04-19T10:57:17.450Z,32.09
2019-04-19T10:58:15.573Z,31.52
2019-04-19T10:59:16.450Z,30.97
2019-04-19T11:00:15.732Z,31.64
2019-04-19T11:01:15.644Z,31.64
2019-04-19T11:02:15.863Z,32.01
2019-04-19T11:03:15.420Z,31.84
2019-04-19T11:04:15.403Z,31.55
2019-04-19T11:05:16.463Z,31.80
2019-04-19T11:06:16.751Z,32.16
2019-04-19T11:07:15.786Z,32.27
2019-04-19T11:08:15.316Z,32.38
2019-04-19T11:09:16.333Z,32.14
2019-04-19T11:10:15.813Z,32.03
2019-04-19T11:11:15.894Z,32.29
2019-04-19T11:12:15.724Z,32.41
2019-04-19T11:13:15.248Z,32.68
2019-04-19T11:14:16.260Z,32.78
2019-04-19T11:15:16.220Z,32.65
2019-04-19T11:16:15.331Z,32.36
2019-04-19T11:17:15.944Z,31.51
2019-04-19T11:18:15.097Z,31.27
2019-04-19T11:19:23.354Z,31.31
2019-04-19T11:20:26.340Z,31.12
2019-04-19T11:21:15.803Z,31.20
2019-04-19T11:22:15.003Z,31.29
2019-04-19T11:23:15.573Z,31.34
2019-04-19T11:24:15.822Z,31.66
2019-04-19T11:25:14.967Z,31.56
2019-04-19T11:26:14.935Z,31.27
2019-04-19T11:27:15.221Z,31.44
2019-04-19T11:28:15.328Z,31.28
2019-04-19T11:29:15.617Z,31.33
2019-04-19T11:30:15.085Z,31.20
2019-04-19T11:31:17.627Z,31.42
2019-04-19T11:32:15.744Z,31.89
2019-04-19T11:33:15.043Z,32.45
2019-04-19T11:34:15.092Z,33.12
2019-04-19T11:35:14.728Z,32.77
2019-04-19T11:36:15.414Z,33.07
2019-04-19T11:37:15.694Z,32.68
2019-04-19T11:38:15.248Z,32.93
2019-04-19T11:39:14.900Z,33.22
2019-04-19T11:40:15.274Z,33.09
2019-04-19T11:41:15.404Z,32.87
2019-04-19T11:42:15.191Z,32.96
2019-04-19T11:43:15.879Z,33.31
2019-04-19T11:44:18.201Z,33.64
2019-04-19T11:45:15.694Z,33.61
2019-04-19T11:46:14.487Z,33.64
2019-04-19T11:47:15.331Z,33.46
2019-04-19T11:48:15.086Z,33.89
2019-04-19T11:49:23.793Z,34.48
2019-04-19T11:50:15.641Z,34.62
2019-04-19T11:51:14.373Z,35.02
2019-04-19T11:52:14.356Z,34.52
2019-04-19T11:53:14.461Z,33.81
2019-04-19T11:54:14.541Z,34.40
2019-04-19T11:55:14.717Z,34.03
2019-04-19T11:56:14.440Z,33.62
2019-04-19T11:57:14.415Z,32.73
2019-04-19T11:58:14.688Z,32.23
2019-04-19T11:59:14.283Z,32.11
2019-04-19T12:00:14.187Z,32.11
2019-04-19T12:01:14.250Z,32.26
2019-04-19T12:02:14.140Z,32.64
2019-04-19T12:03:14.119Z,33.55
2019-04-19T12:04:14.298Z,34.05
2019-04-19T12:05:21.082Z,33.46
2019-04-19T12:06:14.398Z,32.73
2019-04-19T12:07:14.531Z,32.59
2019-04-19T12:08:14.812Z,32.78
2019-04-19T12:09:14.254Z,32.95
2019-04-19T12:10:14.569Z,33.22
2019-04-19T12:11:14.635Z,33.07
2019-04-19T12:12:15.003Z,32.75
2019-04-19T12:13:15.084Z,32.85
2019-04-19T12:14:14.237Z,32.43
2019-04-19T12:15:13.951Z,32.31
2019-04-19T12:16:14.936Z,32.18
2019-04-19T12:17:15.158Z,32.04
2019-04-19T12:18:13.796Z,32.11
2019-04-19T12:19:14.014Z,32.04
2019-04-19T12:20:15.115Z,32.64
2019-04-19T12:21:13.739Z,32.82
2019-04-19T12:22:14.805Z,33.14
2019-04-19T12:23:13.918Z,33.64
2019-04-19T12:24:14.924Z,33.74
2019-04-19T12:25:13.643Z,33.64
2019-04-19T12:26:13.779Z,32.92
2019-04-19T12:27:13.842Z,32.34
2019-04-19T12:28:13.579Z,32.23
2019-04-19T12:29:28.552Z,32.34
2019-04-19T12:30:13.653Z,32.03
2019-04-19T12:31:13.717Z,32.14
2019-04-19T12:32:13.491Z,31.99
2019-04-19T12:33:13.468Z,32.41
2019-04-19T12:34:14.603Z,32.87
2019-04-19T12:35:13.424Z,33.37
2019-04-19T12:36:13.403Z,32.58
2019-04-19T12:37:13.455Z,32.18
2019-04-19T12:38:14.349Z,32.37
2019-04-19T12:39:14.746Z,32.74
2019-04-19T12:40:13.315Z,32.87
2019-04-19T12:41:14.326Z,33.73
2019-04-19T12:42:13.527Z,33.87
2019-04-19T12:43:14.047Z,33.68
2019-04-19T12:44:13.385Z,34.06
2019-04-19T12:45:13.543Z,34.29
2019-04-19T12:46:13.186Z,33.64
2019-04-19T12:47:13.162Z,33.19
2019-04-19T12:48:13.950Z,33.37
2019-04-19T12:49:14.315Z,33.08
2019-04-19T12:50:14.777Z,33.80
2019-04-19T12:51:14.154Z,34.03
2019-04-19T12:52:13.053Z,33.87
2019-04-19T12:53:13.047Z,33.47
2019-04-19T12:54:14.073Z,33.36
2019-04-19T12:55:14.348Z,33.52
2019-04-19T12:56:13.951Z,33.34
2019-04-19T12:57:14.046Z,33.55
2019-04-19T12:58:14.064Z,34.05
2019-04-19T12:59:13.864Z,34.27
2019-04-19T13:00:14.173Z,34.13
2019-04-19T13:01:14.110Z,34.08
2019-04-19T13:02:13.757Z,34.25
2019-04-19T13:03:13.843Z,34.14
2019-04-19T13:04:13.015Z,34.92
2019-04-19T13:05:14.136Z,34.67
2019-04-19T13:06:13.465Z,34.88
2019-04-19T13:07:13.104Z,35.45
2019-04-19T13:08:12.704Z,35.52
2019-04-19T13:09:12.980Z,36.35
2019-04-19T13:10:13.156Z,36.58
2019-04-19T13:11:12.647Z,36.27
2019-04-19T13:12:12.950Z,36.01
2019-04-19T13:13:13.893Z,35.53
2019-04-19T13:14:12.577Z,35.63
2019-04-19T13:15:13.687Z,35.24
2019-04-19T13:16:12.534Z,33.96
2019-04-19T13:17:12.606Z,32.95
2019-04-19T13:18:12.484Z,32.53
2019-04-19T13:19:12.468Z,32.93
2019-04-19T13:20:19.150Z,32.85
2019-04-19T13:21:13.757Z,33.00
2019-04-19T13:22:12.407Z,33.59
2019-04-19T13:23:12.585Z,33.98
2019-04-19T13:24:12.372Z,34.24
2019-04-19T13:25:15.080Z,34.40
2019-04-19T13:26:13.483Z,34.86
2019-04-19T13:27:12.326Z,35.12
2019-04-19T13:28:13.257Z,33.99
2019-04-19T13:29:13.406Z,34.13
2019-04-19T13:30:22.542Z,34.13
2019-04-19T13:31:13.906Z,34.43
2019-04-19T13:32:13.446Z,34.03